Weather at Spinazzola Airfield [CLOSED]

Public forecast

Using degrees Celsius for public forecast. Weather courtesy of forecast.io.

Closest aviation weather report (METAR) to Spinazzola Airfield

Closest report is Bari Karol Wojtyła Airport, 26.6 nm (49.3 km) ENE.

2024/05/24 00:20 (retrieved 31 minutes ago)

LIBD 240020Z AUTO 26003KT 9999 NCD 17/12 Q1017

Closest aviation forecast (TAF) to Spinazzola Airfield

Forecast is more than 6 hours old.

Closest forecast is Foggia "Gino Lisa" Airport, 42.8 nm (79.2 km) NW.

2024/05/23 18:00 Ammendment (retrieved 7 hours ago)

TAF AMD LIBF 232110Z 2318/2418 CNL